Tiempo atmosférico en la estación meteorológica de Alicante/Alacant Aeropuerto, Alacant/Alicante (43 m.)



Fecha
DESCASC
Temp. máxima en grados centígrados (hora)
DESCASC
Temp. mínima en grados centígrados (hora)
DESCASC
Temp. media en grados centígrados
DESCASC
Racha de viento máxima en m/sg (hora)
DESCASC
Velocidad máxima media en intervalos de 10 minutos(hora)
DESCASC
Precipitaciones diarias en mm
DESCASC
Precipitaciones de 00:00 a 06:00 en mm
DESCASC
Precipitaciones de 06:00 a 12:00 en mm
DESCASC
Precipitaciones de 12:00 a 18:00 en mm
DESCASC
Precipitaciones de 18:00 a 24:00 en mm
DESCASC

Gráficas

Temp. máximas Temp. mínimas Temp. medias Precipitaciones Rachas de viento máximas Velocidades máximas media en intervalos de 10 minutos

Datos horarios

Fecha y hora oficial Temperatura (ºC) Velocidad del viento (km/h) Dirección del viento Racha (km/h) Dirección de racha Precipitación (mm) Presión (hPa) Tendencia (hPa) Humedad (%)
2020-05-28 23:00:00 20.7 19 Este 30 Este 0 1017.8 2 73
2020-05-28 22:00:00 20.9 20 Este 32 Este 0 1016.7 0.5 68
2020-05-28 21:00:00 21.7 19 Este 35 Norte 0 1016 -0.7 66
2020-05-28 20:00:00 23.5 23 Este 37 Este 0 1015.8 -2 54
2020-05-28 19:00:00 24.9 27 Nordeste 46 Este 0 1016.2 -1.3 42
2020-05-28 18:00:00 25 33 Este 46 Este 0 1016.7 -1.9 43
2020-05-28 17:00:00 25.9 31 Este 48 Este 0 1017.8 -1.8 38
2020-05-28 16:00:00 25.6 35 Nordeste 63 Este 0 1017.5 -1.9 41
2020-05-28 15:00:00 25.3 37 Este 50 Este 0 1018.6 -0.9 42
2020-05-28 14:00:00 25.7 32 Este 46 Este 0 1019.6 -0.1 39
2020-05-28 13:00:00 25.3 35 Este 46 Nordeste 0 1019.4 -0.6 44
2020-05-28 12:00:00 25.2 32 Este 45 Nordeste 0 1019.5 -0.3 44
2020-05-28 11:00:00 24.5 27 Este 41 Este 0 1019.7 -0.5 47
2020-05-28 10:00:00 24.1 26 Este 37 Este 0 1020 0 43
2020-05-28 09:00:00 22.6 15 Nordeste 32 Este 0 1019.8 0 49
2020-05-28 08:00:00 20.7 9 Norte 13 Nordeste 0 1020.2 0.2 50
2020-05-28 07:00:00 17.8 10 Norte 17 Norte 0 1020 -0.4 58
2020-05-28 06:00:00 18.4 11 Norte 17 Norte 0 1019.8 -0.9 56
2020-05-28 05:00:00 19.7 12 Norte 17 Norte 0 1020 -1.4 52
2020-05-28 04:00:00 19.1 11 Norte 22 Nordeste 0 1020.4 -1.1 75
2020-05-28 03:00:00 19.6 15 Nordeste 35 Este 0 1020.7 -- 79
2020-05-28 02:00:00 18.7 15 Este 24 Este 0 1021.4 -- 89
2020-05-28 01:00:00 19.5 12 Este 18 Este 0 1021.5 -- 60
2020-05-28 00:00:00 19.7 11 Nordeste 21 Nordeste 0 1021.4 -- 60
2020-05-27 23:00:00 21.2 12 Nordeste 35 Nordeste 0 1021.2 -- 56
2020-05-27 22:00:00 21.2 24 Nordeste 46 Este 0 1020.3 -- 64
2020-05-27 21:00:00 21.2 37 Este 50 Este 0 1019.5 -- 72
2020-05-27 20:00:00 21.5 36 Este 50 Este 0 1018.9 -- 72
2020-05-27 19:00:00 22.2 22 Nordeste 48 Este 0 1018.7 -- 74
2020-05-27 18:00:00 22.8 23 Nordeste 48 Este 0 1019.3 -- 74
2020-05-27 17:00:00 23.7 37 Este 52 Norte 0 1019.3 -- 74
2020-05-27 16:00:00 25 33 Este 46 Este 0 1019.7 -- 65
2020-05-27 15:00:00 25.9 33 Este 45 Este 0 1020.1 -- 53
2020-05-27 14:00:00 26.3 31 Este 45 Este 0 1019.9 -- 50
2020-05-27 13:00:00 26.2 30 Este 46 Este 0 1020 -- 50
2020-05-27 12:00:00 25.9 21 Este 30 Este 0 1020.4 -- 53
2020-05-27 11:00:00 25.1 14 Este 26 Este 0 1020.7 -- 48
2020-05-27 10:00:00 26.1 15 Este 22 Este 0 1020.6 -- 38
2020-05-27 09:00:00 24.4 3 Nordeste 9 Oeste 0 1020.5 -- 42
2020-05-27 08:00:00 19.5 9 Oeste 13 Noroeste 0 1020.3 -- 61
2020-05-27 07:00:00 18.8 9 Noroeste 13 Noroeste 0 1019.8 -- 56
2020-05-27 06:00:00 18.6 7 Noroeste 13 Norte 0 1019.5 -- 56
2020-05-27 05:00:00 20.4 8 Norte 15 Norte 0 1019.6 -- 48
2020-05-27 04:00:00 20.5 8 Norte 13 Norte 0 1019.8 -- 54
2020-05-27 03:00:00 19 8 Nordeste -- -- -- 1020.3 -- 68
2020-05-27 02:00:00 20.7 8 Norte 15 Norte 0 1020.6 -- 62
2020-05-27 01:00:00 20.6 9 Norte 15 Norte 0 1020.9 -- 67
2020-05-27 00:00:00 20.4 9 Norte 18 Nordeste 0 1020.9 -- 72
2020-05-26 23:00:00 20.5 11 Nordeste 26 Este 0 1021 -- 71
2020-05-26 22:00:00 21 17 Este 30 Este 0 1020.4 -- 70
2020-05-26 21:00:00 21.2 20 Este 37 Este 0 1020 -- 69
2020-05-26 20:00:00 22.3 28 Este 41 Este 0 1019.4 -- 64
2020-05-26 19:00:00 22.8 26 Nordeste 46 Este 0 1019.2 -- 66
2020-05-26 18:00:00 23.1 35 Este 54 Este 0 1019.2 -- 63
2020-05-26 17:00:00 24.5 31 Este 46 Norte 0 1019.7 -- 51
2020-05-26 16:00:00 25 35 Este 52 Este 0 1020 -- 50
2020-05-26 15:00:00 24.6 28 Este 41 Norte 0 1020.6 -- 63
2020-05-26 14:00:00 24 30 Este 39 Norte 0 1021 -- 62
2020-05-26 13:00:00 24.9 25 Este 33 Norte 0 1021 -- 58
2020-05-26 12:00:00 23.5 19 Este 28 Este 0 1021.3 -- 63
2020-05-26 11:00:00 23.8 9 Este 17 Este 0 1021.6 -- 56
2020-05-26 10:00:00 23 11 Este 22 Este 0 1022 -- 57
2020-05-26 09:00:00 21.8 4 Este 9 Sudeste 0 1021.6 -- 64
2020-05-26 08:00:00 19.3 3 Oeste 9 Noroeste 0 1021.3 -- 69
2020-05-26 07:00:00 16.6 6 Noroeste 11 Noroeste 0 1021 -- 78
2020-05-26 06:00:00 15.6 6 Noroeste 11 Oeste 0 1020.8 -- 82
2020-05-26 05:00:00 16.9 2 Norte 8 Noroeste 0 1020.5 -- 76
2020-05-26 04:00:00 17 4 Noroeste 8 Noroeste 0 1020.8 -- 75
2020-05-26 03:00:00 17.5 5 Oeste -- -- -- 1021.3 -- 75
2020-05-26 02:00:00 19.4 4 Noroeste 11 Noroeste 0 1021.9 -- 67
2020-05-26 01:00:00 19.7 7 Noroeste 13 Norte 0 1022.2 -- 69
2020-05-26 00:00:00 20 6 Norte 9 Nordeste 0 1021.9 -- 62
2020-05-25 23:00:00 20 5 Nordeste 11 Nordeste 0 1021.7 -- 65
2020-05-25 22:00:00 20.3 8 Nordeste 15 Este 0 1021.2 -- 69
2020-05-25 21:00:00 21 8 Este 13 Este 0 1020.6 -- 60
2020-05-25 20:00:00 21.2 12 Este 22 Nordeste 0 1020.2 -- 61
2020-05-25 19:00:00 21.6 15 Nordeste 26 Este 0 1020.5 -- 59
2020-05-25 18:00:00 22.6 12 Nordeste 24 Este 0 1021.6 -- 59
2020-05-25 17:00:00 23 16 Este 26 Este 0 1022.3 -- 54
2020-05-25 16:00:00 22.7 15 Nordeste 30 Nordeste 0 1022.2 -- 53
2020-05-25 15:00:00 22.6 17 Este 26 Este 0 1022.5 -- 52
2020-05-25 14:00:00 23.1 19 Este 30 Norte 0 1022.6 -- 45
2020-05-25 13:00:00 24.9 22 Este 32 Norte 0 1022.6 -- 29
2020-05-25 12:00:00 24.8 15 Nordeste -- -- -- 1022.7 -- 24
2020-05-25 11:00:00 24.8 16 Este 26 Este 0 1022.7 -- 26
2020-05-25 10:00:00 23.3 10 Nordeste 18 Este 0 1022.5 -- 35
2020-05-25 09:00:00 22 9 Nordeste 13 Nordeste 0 1022.4 -- 36
2020-05-25 08:00:00 18.3 3 Norte 11 Norte 0 1022.4 -- 55
2020-05-25 07:00:00 16 6 Norte 11 Norte 0 1021.8 -- 65
2020-05-25 06:00:00 15.7 5 Noroeste -- -- 0 1021.7 -- 75
2020-05-25 05:00:00 16.2 5 Noroeste 13 Norte 0 1021.8 -- 81
2020-05-25 04:00:00 16.4 9 Norte 11 Norte 0 1021.7 -- 86
2020-05-25 03:00:00 18.2 9 Norte 11 Norte 0 1021.9 -- 83
2020-05-25 02:00:00 18.7 6 Norte 9 Norte 0 1022.2 -- 89
2020-05-25 01:00:00 19.6 5 Norte 11 Norte 0 1022.8 -- 82
2020-05-25 00:00:00 19.4 8 Nordeste 17 Nordeste 0 1022.8 -- 83
2020-05-24 23:00:00 19.6 10 Nordeste 18 Este 0 1022.9 -- 85
2020-05-24 22:00:00 20.1 10 Este 18 Este 0 1022.6 -- 80
2020-05-24 21:00:00 21 11 Nordeste 26 Este 0 1022.5 -- 73
2020-05-24 20:00:00 21.8 19 Este 32 Este 0 1022.4 -- 72
2020-05-24 19:00:00 22.3 20 Este 33 Este 0 1022.1 -- 73
2020-05-24 18:00:00 22.6 24 Nordeste 35 Este 0 1022.2 -- 73
2020-05-24 17:00:00 23.6 19 Este 37 Este 0 1022.3 -- 69
2020-05-24 16:00:00 24 22 Este 33 Este 0 1022.6 -- 68
2020-05-24 15:00:00 23.7 21 Nordeste 33 Este 0 1023.2 -- 69
2020-05-24 14:00:00 24.4 22 Este 35 Este 0 1023.6 -- 66
2020-05-24 13:00:00 23.9 27 Este 41 Este 0 1023.5 -- 64
2020-05-24 12:00:00 24.5 32 Este 42 Este 0 1023.6 -- 60
2020-05-24 11:00:00 24.7 23 Este 33 Este 0 1023.4 -- 50
2020-05-24 10:00:00 24.8 17 Nordeste 26 Nordeste 0 1023.4 -- 48
2020-05-24 09:00:00 22.9 4 Nordeste 11 Norte 0 1023.3 -- 58
2020-05-24 08:00:00 19.1 7 Oeste 13 Oeste 0 1022.7 -- 73
2020-05-24 07:00:00 16.7 8 Oeste 9 Oeste 0 1022 -- 79
2020-05-24 06:00:00 17.6 7 Noroeste 9 Noroeste 0 1021.4 -- 68
2020-05-24 05:00:00 20.2 9 Norte 17 Nordeste 0 1021.1 -- 61
2020-05-24 04:00:00 19.6 12 Nordeste 15 Nordeste 0 1021.5 -- 68
2020-05-24 03:00:00 19.2 12 Nordeste 17 Nordeste 0 1021.6 -- 75
2020-05-24 02:00:00 19.4 12 Nordeste 18 Nordeste 0 1021.7 -- 83
2020-05-24 01:00:00 20 9 Nordeste 17 Este 0 1021.8 -- 83
2020-05-24 00:00:00 20.6 9 Nordeste 17 Nordeste 0 1021.7 -- 82
2020-05-23 23:00:00 21.1 10 Nordeste 15 Este 0 1021.3 -- 86
2020-05-23 22:00:00 21.6 8 Nordeste 11 Nordeste 0 1020.1 -- 79
2020-05-23 21:00:00 22.9 8 Este 13 Este 0 1019.5 -- 62
2020-05-23 20:00:00 24.3 8 Este 15 Este 0 1019.3 -- 57
2020-05-23 19:00:00 25.1 9 Este 18 Este 0 1019.3 -- 55
2020-05-23 18:00:00 26.8 14 Este 21 Este 0 1019.6 -- 43
2020-05-23 17:00:00 27.2 14 Este 22 Norte 0 1019.9 -- 43
2020-05-23 16:00:00 28 15 Este 26 Este 0 1020.3 -- 37
2020-05-23 15:00:00 28.7 15 Este 22 Este 0 1020.7 -- 37
2020-05-23 14:00:00 28.5 14 Este 22 Este 0 1021.3 -- 40
2020-05-23 13:00:00 27.8 9 Este 17 Sudeste 0 1021.7 -- 39
2020-05-23 12:00:00 26.4 10 Este 17 Este 0 1021.8 -- 47
2020-05-23 11:00:00 25.3 9 Este 15 Este 0 1021.7 -- 48
2020-05-23 10:00:00 24.9 8 Este 13 Este 0 1021.6 -- 45
2020-05-23 09:00:00 22.2 2 Norte 8 Este 0 1021.4 -- 49
2020-05-23 08:00:00 21.4 4 Este 5 Este 0 1021.2 -- 50
2020-05-23 07:00:00 17.2 0 Calma 9 Noroeste 0 1020.6 -- 63
2020-05-23 06:00:00 17.7 8 Noroeste -- -- 0 1020.2 -- 62
2020-05-23 05:00:00 18.2 12 Noroeste 15 Noroeste 0 1020.2 -- 60
2020-05-23 04:00:00 18.1 8 Noroeste 11 Noroeste 0 1020.5 -- 62
2020-05-23 03:00:00 18.2 9 Noroeste 11 Noroeste 0 1020.9 -- 66
2020-05-23 02:00:00 17.7 4 Noroeste 8 Noroeste 0 1021.1 -- 70
2020-05-23 01:00:00 18.5 4 Noroeste 5 Noroeste 0 1021.3 -- 67
2020-05-23 00:00:00 19.5 0 Calma 5 Nordeste 0 1021.3 -- 63
2020-05-22 23:00:00 21.3 4 Norte -- -- 0 1021.1 -- 54
2020-05-22 22:00:00 21.3 4 Este 8 Este 0 1020.6 -- 71
2020-05-22 21:00:00 22.8 6 Este 13 Este 0 1019.9 -- 61
2020-05-22 20:00:00 24.7 9 Este 18 Norte 0 1019.5 -- 52
2020-05-22 19:00:00 25.3 13 Este 21 Este 0 1019.6 -- 44
2020-05-22 18:00:00 26.1 14 Este 22 Este 0 1019.5 -- 42
2020-05-22 17:00:00 26.9 14 Este 22 Este 0 1019.5 -- 42
2020-05-22 16:00:00 27 17 Este 28 Este 0 1019.6 -- 52
2020-05-22 15:00:00 26.9 18 Este 26 Este 0 1019.7 -- 60
2020-05-22 14:00:00 27 15 Este 28 Norte 0 1019.6 -- 59
2020-05-22 13:00:00 27.8 14 Este 21 Este 0 1019.5 -- 54
2020-05-22 12:00:00 27.4 9 Este 17 Este 0 1019.3 -- 52
2020-05-22 11:00:00 25.9 5 Este 9 Sudeste 0 1019 -- 59
2020-05-22 10:00:00 23.4 4 Este 9 Este 0 1018.9 -- 72
2020-05-22 09:00:00 20.7 6 Este 9 Norte 0 1018.6 -- 87
2020-05-22 08:00:00 18.5 0 Calma 4 Oeste 0 1018.2 -- 88
2020-05-22 07:00:00 16.2 0 Calma 5 Oeste 0 1017.7 -- 91
2020-05-22 06:00:00 16.2 0 Calma -- -- 0 1017.3 -- 96
2020-05-22 05:00:00 17.3 2 Noroeste 9 Oeste 0 1017.1 -- 98
2020-05-22 04:00:00 17.6 5 Oeste 8 Oeste 0 1017.2 -- 96
2020-05-22 03:00:00 17.6 0 Calma -- -- 0 1017.4 -- 96
2020-05-22 02:00:00 18.1 5 Oeste -- -- 0 1017.7 -- 95
2020-05-22 01:00:00 18.6 6 Oeste -- -- 0 1018 -- 94
2020-05-22 00:00:00 19.4 8 Oeste 9 Oeste 0 1017.9 1.5 91
2020-05-21 23:00:00 20 4 Oeste 8 Sudoeste 0 1017.9 -- 88
2020-05-21 22:00:00 20.5 4 Sudeste 9 Norte 0 1016.9 -- 89
2020-05-21 21:00:00 22.1 6 Este 11 Norte 0 1016.4 -- 78
2020-05-21 20:00:00 23.6 7 Este 13 Este 0 1015.9 -- 68
2020-05-21 19:00:00 24.1 8 Este 15 Este 0 1015.8 -- 62
2020-05-21 18:00:00 24.4 11 Este 18 Norte 0 1016 -- 61
2020-05-21 17:00:00 24.3 13 Este 21 Este 0 1016.1 -0.4 65
2020-05-21 16:00:00 24.7 12 Este 22 Este 0 1016.3 -- 67
2020-05-21 15:00:00 24.7 15 Este 26 Este 0 1016.2 -0.2 64
2020-05-21 14:00:00 25.2 14 Este 22 Este 0 1016.5 -- 64
2020-05-21 13:00:00 25.7 12 Este 18 Este 0 1016.6 0.7 56
2020-05-21 12:00:00 26.5 12 Este 18 Este 0 1016.4 -- 53
2020-05-21 11:00:00 25.2 4 Sudeste 11 Este 0 1016.2 -- 59
2020-05-21 10:00:00 23.5 8 Este 15 Este 0 1015.9 -- 73
2020-05-21 09:00:00 22.3 8 Nordeste 13 Este 0 1015.6 -- 78
2020-05-21 08:00:00 20.6 8 Norte 13 Norte 0 1015 -- 82
2020-05-21 07:00:00 18.2 9 Norte 11 Norte 0 1014.4 -- 93
2020-05-21 06:00:00 18 8 Noroeste 15 Norte 0 1013.7 -- 94
2020-05-21 05:00:00 18.3 10 Norte 15 Nordeste 0 1013.4 -- 84
2020-05-21 04:00:00 18.2 7 Nordeste 11 Nordeste 0 1013.4 -- 78
2020-05-21 03:00:00 17.4 3 Noroeste 5 Noroeste 0 1013.4 -- 84
2020-05-21 02:00:00 18.1 0 Calma 5 Nordeste 0 1013.6 -- 85
2020-05-21 01:00:00 19.1 4 Nordeste 9 Nordeste 0 1013.5 -- 79
2020-05-21 00:00:00 19.5 6 Nordeste 9 Nordeste 0 1013 -- 78
2020-05-20 23:00:00 19.8 6 Nordeste 9 Nordeste 0 1012.7 -- 81
2020-05-20 22:00:00 20.9 0 Calma -- -- 0 1011.9 -- 78
2020-05-20 21:00:00 22.6 3 Este 11 Este 0 1011.5 -- 68
2020-05-20 20:00:00 23.5 7 Este 15 Este 0 1011.4 -- 65
2020-05-20 19:00:00 23.9 9 Este 18 Este 0 1011.2 -- 63
2020-05-20 18:00:00 24.6 14 Este 22 Este 0 1011.3 -- 63
2020-05-20 17:00:00 25.1 14 Este 24 Norte 0 1011.2 -- 61
2020-05-20 16:00:00 25.7 14 Este 24 Este 0 1011.5 -- 59
2020-05-20 15:00:00 26.1 15 Este 26 Este 0 1011.6 -- 55
2020-05-20 14:00:00 26.8 12 Este 24 Norte 0 1011.8 -- 50
2020-05-20 13:00:00 27.4 12 Este 21 Norte 0 1012.2 -- 47
2020-05-20 12:00:00 26.6 8 Este 15 Este 0 1012.3 -- 48
2020-05-20 11:00:00 25.7 7 Este 13 Este 0 1012.4 -- 47
2020-05-20 10:00:00 24.7 10 Este 15 Este 0 1012.3 -- 53
2020-05-20 09:00:00 23 10 Norte 17 Nordeste 0 1011.8 -- 61
2020-05-20 08:00:00 19.2 8 Norte 11 Norte 0 1011.6 -- 78
2020-05-20 07:00:00 17.1 7 Norte 11 Norte 0 1011.3 -- 86
2020-05-20 06:00:00 15.9 0 Calma 8 Norte 0 1011.1 -- 90
2020-05-20 05:00:00 15.7 5 Oeste 8 Oeste 0 1011.2 -- 91
2020-05-20 04:00:00 16.2 4 Sudoeste 11 Sudoeste 0 1011.6 -- 91
2020-05-20 03:00:00 -- 8 Oeste 9 Oeste 0 1012 -- --
2020-05-20 02:00:00 17.1 3 Noroeste 5 Este 0 1012.5 -- 93
2020-05-20 01:00:00 17.8 3 Nordeste 5 Nordeste 0 1012.9 -- 94
2020-05-20 00:00:00 18.5 3 Noroeste 5 Noroeste 0 1013.1 -- 94
2020-05-19 23:00:00 18.6 4 Este 9 Nordeste 0 1013.1 -- 95
2020-05-19 22:00:00 19.2 6 Nordeste 13 Este 0 1012.7 -- 94
2020-05-19 21:00:00 20 11 Nordeste 18 Este 0 1012.6 -- 89
2020-05-19 20:00:00 22.1 13 Este 21 Nordeste 0 1012.4 -- 78
2020-05-19 19:00:00 24.2 12 Nordeste 21 Este 0 1012.3 -- 69
2020-05-19 18:00:00 24.8 6 Sudeste 18 Sudoeste 0 1012.3 -- 55
2020-05-19 17:00:00 24.5 9 Sudoeste 18 Sur 0 1012.6 -- 60
2020-05-19 16:00:00 25.5 12 Sur 22 Sur 0 1012.9 -- 51
2020-05-19 15:00:00 26.7 14 Sur 22 Sudeste 0 1013.4 -- 45
2020-05-19 14:00:00 27.3 11 Sur 24 Norte 0 1014.2 -- 35
2020-05-19 13:00:00 26.2 14 Este 24 Este 0 1014.8 -- 50
2020-05-19 12:00:00 25.8 10 Este 17 Norte 0 1015.2 -- 45
2020-05-19 11:00:00 25 7 Nordeste 11 Nordeste 0 1015.3 -- 45
2020-05-19 10:00:00 23 4 Noroeste 9 Norte 0 1015.4 -- 51
2020-05-19 09:00:00 20.7 0 Calma 9 Oeste 0 1015.3 -- 60
2020-05-19 08:00:00 17.5 4 Oeste 9 Oeste 0 1015.2 -- 77
2020-05-19 07:00:00 14.5 8 Oeste -- -- 0 1014.7 -- 87
2020-05-19 06:00:00 15.4 5 Oeste 9 Oeste 0 1014.7 -- 83
2020-05-19 05:00:00 14.6 8 Oeste -- -- 0 1015 -- 88
2020-05-19 04:00:00 16.2 0 Calma -- -- 0 1015.3 -- 82
2020-05-19 03:00:00 17.1 3 Nordeste 9 Oeste 0 1015.7 -- 79
2020-05-19 02:00:00 17.1 8 Oeste 9 Oeste 0 1016.1 -- 80
2020-05-19 01:00:00 17.4 5 Noroeste 9 Este 0 1016.6 -- 91
2020-05-19 00:00:00 17.7 9 Este 11 Este 0 1016.8 -- 90
2020-05-18 23:00:00 18.4 6 Este 13 Este 0 1016.8 -- 89
2020-05-18 22:00:00 18.6 7 Nordeste 15 Este 0 1016.2 -- 90
2020-05-18 21:00:00 20.7 9 Nordeste 15 Nordeste 0 1015.6 -- 80
2020-05-18 20:00:00 23.2 8 Sudeste 15 Sur 0 1015.3 -- 58
2020-05-18 19:00:00 24 10 Sur 24 Sur 0 1015.3 -- 53
2020-05-18 18:00:00 24 14 Sur 24 Sur 0 1015.4 -- 54
2020-05-18 17:00:00 24.7 14 Sur 26 Sur 0 1015.3 -- 53
2020-05-18 16:00:00 24.5 15 Sur 24 Sur 0 1015.8 -- 56
2020-05-18 15:00:00 24.4 15 Sur 24 Sur 0 1016.4 -- 57
2020-05-18 14:00:00 24.7 12 Sur 22 Sur 0 1016.7 -- 57
2020-05-18 13:00:00 23.9 12 Sur 22 Sur 0 1017.4 -- 58
2020-05-18 12:00:00 23.6 10 Sur 21 Sur 0 1017.7 -- 60
2020-05-18 11:00:00 22.2 9 Sur 21 Sur 0 1017.9 -- 61
2020-05-18 10:00:00 19.8 9 Sudoeste 17 Sudoeste 0 1018.2 -- 73
2020-05-18 09:00:00 17.7 5 Sudoeste 9 Sudoeste 0 1018 -- 78
2020-05-18 08:00:00 15 4 Sur 9 Oeste 0 1017.8 -- 87
2020-05-18 07:00:00 13.7 8 Noroeste 9 Oeste 0 1017.3 -- 91
2020-05-18 06:00:00 14.5 8 Sudoeste 9 Sudoeste 0 1017.4 -- 91
2020-05-18 05:00:00 15.4 5 Noroeste 9 Oeste 0 1017.4 -- 89
2020-05-18 04:00:00 15.7 7 Sudoeste 13 Sudoeste 0 1017.5 -- 89
2020-05-18 03:00:00 15.5 10 Sudoeste 13 Sudoeste 0 1018.1 -- 91
2020-05-18 02:00:00 15.3 8 Oeste 11 Oeste 0 1018.4 -- 92
2020-05-18 01:00:00 15.1 6 Noroeste 13 Oeste 0 1018.9 -- 91
2020-05-18 00:00:00 14.9 10 Oeste -- -- 0 1019.1 -- 94
2020-05-17 23:00:00 16.3 6 Oeste 9 Sur 0 1019 -- 92
2020-05-17 22:00:00 17 6 Sur 11 Sur 0 1018.4 -- 91
2020-05-17 21:00:00 18.4 6 Sur 18 Sur 0 1017.8 -- 83
2020-05-17 20:00:00 19.7 9 Sur 21 Sur 0 1017.3 -- 74
2020-05-17 19:00:00 21.2 13 Sudoeste 21 Sudoeste 0 1017.3 -- 61
2020-05-17 18:00:00 20.2 6 Este 17 Este 0 1017.6 -- 70
2020-05-17 17:00:00 20.1 12 Este 18 Este 0 1017.3 -- 70
2020-05-17 16:00:00 19.8 14 Sudeste 30 Este 0 1017.2 -- 68
2020-05-17 15:00:00 21.9 19 Este 28 Este 0 1017.4 -- 59
2020-05-17 14:00:00 21.6 9 Sur 22 Sur 0 1017.6 -- 59
2020-05-17 13:00:00 20.2 10 Sur 18 Sudeste 0 1018 -- 71
2020-05-17 12:00:00 20.3 5 Sudeste 11 Sudeste 0 1018.2 -- 65
2020-05-17 11:00:00 19.3 6 Sudoeste 9 Sudoeste 0 1018 -- 67
2020-05-17 10:00:00 18.1 4 Noroeste 9 Noroeste 0 1017.8 -- 82
2020-05-17 09:00:00 17.1 5 Oeste 9 Noroeste 0 1017.3 -- 85
2020-05-17 08:00:00 15.8 5 Oeste -- -- 0 1016.5 -- 89
2020-05-17 07:00:00 15.4 -- -- -- -- 0 1015.9 -- 91
2020-05-17 06:00:00 15 7 Oeste 8 Oeste 0 1015.5 -- 95
2020-05-17 05:00:00 16 -- -- -- -- 0 1015.3 -- 93
2020-05-17 04:00:00 16.2 6 Noroeste 11 Oeste 0 1015.2 -- 93
2020-05-17 03:00:00 16 9 Oeste -- -- -- 1015.6 -- 94
2020-05-17 02:00:00 16.2 7 Oeste 11 Oeste 0 1015.9 -- 93
2020-05-17 01:00:00 16.5 4 Oeste 8 Sudoeste 0 1016.1 -- 94
2020-05-17 00:00:00 16.9 5 Sudoeste 8 Oeste 0 1016 -- 91
2020-05-16 23:00:00 17.2 3 Oeste 11 Este 0 1015.5 -- 91
2020-05-16 22:00:00 17.5 6 Este 11 Nordeste 0 1014.7 -- 89
2020-05-16 21:00:00 17.9 10 Este 24 Este 0 1014.2 -- 86
2020-05-16 20:00:00 18.6 17 Este 26 Este 0 1013.5 -- 79
2020-05-16 19:00:00 20 17 Este 24 Este 0 1012.6 -- 72
2020-05-16 18:00:00 21.1 15 Este 21 Este 0 1012.1 -- 57
2020-05-16 17:00:00 21.7 11 Este 18 Sudeste 0 1011.6 -- 54
2020-05-16 16:00:00 21.2 5 Este 11 Norte 0 1012 -- 54
2020-05-16 15:00:00 20.4 6 Nordeste 13 Nordeste 0 1012.3 -- 56
2020-05-16 14:00:00 20 7 Nordeste 22 Este 0 1012.3 -- 58
2020-05-16 13:00:00 20 16 Este 22 Este 0 1012.5 -- 61
2020-05-16 12:00:00 20.8 12 Este 18 Norte 0 1012.2 -- 59
2020-05-16 11:00:00 22.1 8 Este 22 Nordeste 0 1011.4 -- 55
2020-05-16 10:00:00 20.5 6 Sudoeste 11 Sudoeste 0 1011.1 -- 59
2020-05-16 09:00:00 18.4 6 Oeste 9 Sudoeste 0 1010.8 -- 66
2020-05-16 08:00:00 15.8 7 Sudoeste 11 Oeste 0 1010.3 -- 81
2020-05-16 07:00:00 14.7 3 Oeste 13 Oeste 0 1010.1 -- 83
2020-05-16 06:00:00 14.7 11 Oeste 13 Oeste 0 1009.6 -- 83
2020-05-16 05:00:00 14.8 8 Oeste 11 Noroeste 0 1009.7 -- 83
2020-05-16 04:00:00 15.2 8 Oeste 15 Oeste 0 1009.7 -- 80
2020-05-16 03:00:00 15.6 11 Oeste -- -- -- 1010.1 -- 79
2020-05-16 02:00:00 15.4 10 Oeste 17 Oeste 0 1010.6 -- 85
2020-05-16 01:00:00 16.6 10 Oeste 11 Oeste 0 1010.8 -- 89
2020-05-16 00:00:00 16.7 5 Norte 13 Norte 0 1010.7 -- 90
2020-05-15 23:00:00 15.6 0 Calma -- -- 0 1010.4 -- 94
2020-05-15 22:00:00 16.2 8 Sur 11 Sur 0 1009.8 -- 91
2020-05-15 21:00:00 17.5 10 Nordeste 18 Este 0 1009.1 -- 83
2020-05-15 20:00:00 18.8 12 Nordeste 18 Nordeste 0 1009 -- 71
2020-05-15 19:00:00 19.8 12 Nordeste 18 Nordeste 0 1008.6 -- 69
2020-05-15 18:00:00 19.7 7 Nordeste 17 Nordeste 0 1008.7 -- 73
2020-05-15 17:00:00 18.2 8 Norte 21 Este 0.8 1008.7 -- 81
2020-05-15 16:00:00 17.8 9 Este 22 Este 0.1 1009 -- 79
2020-05-15 15:00:00 19.1 11 Este 22 Este 0 1009 -- 67
2020-05-15 14:00:00 19.5 15 Este 24 Este 0 1008.8 -- 75
2020-05-15 13:00:00 20 16 Este 26 Este 0 1009 -- 65
2020-05-15 12:00:00 19.7 14 Este 22 Norte 0 1008.7 -- 65
2020-05-15 11:00:00 20.1 15 Este 24 Este 0 1008.5 -- 63
2020-05-15 10:00:00 19.1 10 Nordeste 17 Norte 0 1008.4 -- 69
2020-05-15 09:00:00 17.2 11 Norte 17 Norte 0 1008.3 -- 72
2020-05-15 08:00:00 15.5 9 Noroeste 11 Noroeste 0 1008.1 -- 73
2020-05-15 07:00:00 13.2 8 Oeste -- -- 0 1007.7 -- 86
2020-05-15 06:00:00 13.5 8 Oeste 15 Oeste 0 1006.8 -- 87
2020-05-15 05:00:00 13.2 5 Norte 5 Noroeste 0 1006.4 -- 88
2020-05-15 04:00:00 13.5 3 Norte 11 Sudoeste 0 1006.4 -- 88
2020-05-15 03:00:00 13.9 8 Sur -- -- -- 1006.4 -- 86
2020-05-15 02:00:00 14.3 0 Calma 13 Sur 0 1006.4 -- 87
2020-05-15 01:00:00 14.2 3 Norte 13 Norte 0 1006.3 -- 88
2020-05-15 00:00:00 14.3 5 Norte 8 Nordeste 0 1006.6 -- 88
2020-05-14 23:00:00 14.9 0 Calma 11 Sudoeste 0 1006.3 -- 85
2020-05-14 22:00:00 16.8 7 Oeste 22 Sudoeste 0 1005.6 -- 75
2020-05-14 21:00:00 18.6 14 Sudoeste 28 Sur 0 1004.8 -- 65
2020-05-14 20:00:00 19.4 16 Sur 39 Sur 0 1003.9 -- 67
2020-05-14 19:00:00 19.7 21 Sur 35 Sur 0 1003.3 -- 66
2020-05-14 18:00:00 20.1 19 Sur 35 Sur 0 1002.7 -- 62
2020-05-14 17:00:00 21.1 16 Sur 33 Sudoeste 0 1002.5 -- 51
2020-05-14 16:00:00 21 21 Sudoeste 45 Oeste 0 1002.9 -- 46
2020-05-14 15:00:00 19.7 30 Oeste 46 Oeste 0.1 1003.3 -- 47
2020-05-14 14:00:00 17.4 22 Oeste 33 Sudoeste 0 1003.1 -- 64
2020-05-14 13:00:00 15.6 17 Oeste 30 Oeste 0 1002.7 -- 72
2020-05-14 12:00:00 13.9 14 Sudoeste 41 Oeste 0.4 1003.2 -- 86
2020-05-14 11:00:00 13 37 Oeste 48 Oeste 2 1002.3 -- 83
2020-05-14 10:00:00 13.7 21 Noroeste 30 Noroeste 2.8 1001.6 -- 92
2020-05-14 09:00:00 13.7 10 Sudoeste 18 Oeste 3.4 1001.4 -- 97
2020-05-14 08:00:00 14.1 12 Sudoeste 24 Sudoeste 6.2 1001 -- 96
2020-05-14 07:00:00 15.3 8 Sur 15 Sur 6 1000.6 -- 98
2020-05-14 06:00:00 16.1 2 Sur 8 Oeste 1.2 1000.2 -- 93
2020-05-14 05:00:00 16.9 5 Sudoeste 11 Norte 0 1000.4 -- 85
2020-05-14 04:00:00 16.8 0 Calma 18 Sur 0 1000.3 -- 83
2020-05-14 03:00:00 17.2 12 Sur -- -- -- 1001.3 -- 82
2020-05-14 02:00:00 15.9 6 Sur 17 Sur 0 1001.3 -- 71
2020-05-14 01:00:00 17.1 10 Nordeste 18 Nordeste 0 1000.7 -- 65
2020-05-14 00:00:00 17.3 7 Norte 18 Norte 0 1001.4 -- 64
2020-05-13 23:00:00 17 7 Norte 11 Norte 0 1002.1 -- 63
2020-05-13 22:00:00 17.1 4 Este 8 Norte 0 1001.2 -- 65
2020-05-13 21:00:00 18.7 0 Calma 18 Sur 0 1001.6 -- 63
2020-05-13 20:00:00 20.6 10 Sur 22 Sur 0 1001.6 -- 51
2020-05-13 19:00:00 21.6 12 Sur 32 Sur 0 1001.5 -- 47
2020-05-13 18:00:00 22 19 Sur 35 Sur 0 1001.6 -- 43
2020-05-13 17:00:00 22.1 23 Sur 37 Sur 0 1001.4 -- 48
2020-05-13 16:00:00 22.5 22 Sur 35 Sur 0 1001.8 -- 46
2020-05-13 15:00:00 22.5 22 Sur 35 Sur 0 1002.6 -- 47
2020-05-13 14:00:00 22.4 18 Sur 32 Sur 0 1003.2 -- 46
2020-05-13 13:00:00 22.5 14 Sur 26 Sur 0 1003.6 -- 42
2020-05-13 12:00:00 21.8 13 Sur 26 Sur 0 1004.1 -- 44
2020-05-13 11:00:00 20.2 14 Sudoeste 24 Sudoeste 0 1004.2 -- 50
2020-05-13 10:00:00 17.9 14 Sudoeste 21 Sudoeste 0 1004.4 -- 58
2020-05-13 09:00:00 16.7 12 Sudoeste 21 Oeste 0 1004.1 -- 60
2020-05-13 08:00:00 14.3 11 Sudoeste 15 Sudoeste 0 1004.2 -- 72
2020-05-13 07:00:00 13.3 9 Sudoeste 17 Sudoeste 0 1004 -- 74
2020-05-13 06:00:00 12.4 12 Sudoeste 17 Sudoeste 0 1003.5 -- 82
2020-05-13 05:00:00 13.7 8 Oeste 18 Oeste 0 1003.2 -- 77
2020-05-13 04:00:00 13.4 16 Oeste 22 Oeste 0 1003 -- 79
2020-05-13 03:00:00 15 17 Sudoeste 26 Oeste 0 1003.2 -- 72
2020-05-13 02:00:00 15.5 18 Oeste 33 Noroeste 0 1002.8 -- 69
2020-05-13 01:00:00 15.8 16 Oeste 39 Noroeste 0 1003.1 -- 75
2020-05-13 00:00:00 16.5 30 Noroeste 42 Noroeste 0 1003.3 -- 79
2020-05-12 23:00:00 17.1 6 Oeste 8 Oeste 0 1003.2 -- 89
2020-05-12 22:00:00 17.1 0 Calma 11 Sur 0 1003 -- 87
2020-05-12 21:00:00 18.6 7 Sur 17 Sudeste 0 1002.5 -- 75
2020-05-12 20:00:00 20.8 10 Este 21 Este 0 1002.1 -- 59
2020-05-12 19:00:00 21 7 Este 11 Nordeste 0 1002.3 -- 62
2020-05-12 18:00:00 20 8 Norte 13 Este 0.1 1002.7 -- 70
2020-05-12 17:00:00 20.4 6 Este 18 Este 0 1003 -- 64
2020-05-12 16:00:00 21.4 15 Este 33 Sudeste 0 1003.6 -- 59
2020-05-12 15:00:00 20.8 19 Este 33 Sudeste 0 1003.2 -- 65
2020-05-12 14:00:00 22 19 Este 32 Este 0 1003.8 -- 66
2020-05-12 13:00:00 22.3 15 Nordeste 28 Este 0 1003.9 -- 64
2020-05-12 12:00:00 21.3 12 Este 21 Norte 0 1004.7 -- 70
2020-05-12 11:00:00 21.4 16 Este 30 Este 0 1004.6 -- 68
2020-05-12 10:00:00 21.5 13 Nordeste 21 Este 0 1005.1 -- 67
2020-05-12 09:00:00 19.1 10 Norte 15 Norte 0 1005.5 -- 63
2020-05-12 08:00:00 17.4 9 Nordeste 13 Nordeste 0 1005.3 -- 64
2020-05-12 07:00:00 19 7 Nordeste 24 Noroeste 0 1005.7 -- 55
2020-05-12 06:00:00 18.2 13 Noroeste 15 Noroeste 0 1006.2 -- 59
2020-05-12 05:00:00 17.2 8 Norte 15 Noroeste 0 1006.1 -- 64
2020-05-12 04:00:00 15.7 11 Oeste 13 Oeste 0 1006.7 -- 70
2020-05-12 03:00:00 18.6 10 Noroeste 15 Norte 0 1006.3 -- 56
2020-05-12 02:00:00 18.5 13 Noroeste 17 Noroeste 0 1007.3 -- 57
2020-05-12 01:00:00 18.3 9 Norte 11 Norte 0 1007.8 -- 61
2020-05-12 00:00:00 17.8 5 Norte 9 Norte 0 1007.8 -- 67
2020-05-11 23:00:00 19.1 6 Oeste 9 Noroeste 0 1007.2 -- 72
2020-05-11 22:00:00 20.7 3 Sur 15 Sur 0 1006.6 -- 64
2020-05-11 21:00:00 21.7 5 Sudoeste 24 Sur 0 1005.8 -- 61
2020-05-11 20:00:00 23.6 16 Sur 30 Sur 0 1004.9 -- 56
2020-05-11 19:00:00 25.2 18 Sur 35 Sur 0 1004.7 -- 47
2020-05-11 18:00:00 24.9 23 Sur 41 Sur 0 1004.8 -- 49
2020-05-11 17:00:00 22.9 24 Sur 42 Sur 0 1005 -- 61
2020-05-11 16:00:00 23.4 27 Sur 46 Sur 0 1005.3 -- 55
2020-05-11 15:00:00 24.2 24 Sur 39 Sur 0 1005.6 -- 54
2020-05-11 14:00:00 26.1 23 Sudoeste 41 Sudoeste 0 1005.9 -- 35
2020-05-11 13:00:00 24.8 24 Sudoeste 41 Oeste 0 1006.2 -- 38
2020-05-11 12:00:00 23.6 24 Sudoeste 41 Oeste 0 1006.3 -- 42
2020-05-11 11:00:00 22.6 21 Sudoeste 37 Sudoeste 0 1006.2 -- 47
2020-05-11 10:00:00 20.6 15 Sudoeste 22 Sudoeste 0 1006.2 -- 52
2020-05-11 09:00:00 18.8 13 Sudoeste 18 Sudoeste 0 1006.2 -- 59
2020-05-11 08:00:00 14.9 10 Sudoeste 13 Sudoeste 0 1006.2 -- 72
2020-05-11 07:00:00 13.8 12 Oeste 13 Oeste 0 1005.6 -- 73
2020-05-11 06:00:00 14.2 10 Sudoeste 17 Oeste 0 1005.1 -- 71
2020-05-11 05:00:00 13.9 13 Oeste 18 Oeste 0 1004.8 -- 72
2020-05-11 04:00:00 14.8 13 Sudoeste 18 Sudoeste 0 1004.8 -- 67
2020-05-11 03:00:00 14.6 16 Oeste 24 Sudoeste 0 1004.6 -- 67
2020-05-11 02:00:00 16.5 6 Noroeste 15 Oeste 0 1005 -- 56
2020-05-11 01:00:00 16.9 7 Noroeste 22 Sudoeste 0 1005.1 -- 55
2020-05-11 00:00:00 16.7 14 Sudoeste 30 Sudoeste 0 1005.2 -- 57
2020-05-10 23:00:00 18.1 15 Sudoeste 28 Oeste 0 1004.5 -- 49
2020-05-10 22:00:00 19.6 21 Oeste 33 Oeste 0 1003.9 -- 44
2020-05-10 21:00:00 20.3 25 Oeste 41 Oeste 0 1003.5 -- 40
2020-05-10 20:00:00 22.5 29 Oeste 50 Oeste 0 1002.5 -- 39
2020-05-10 19:00:00 24.3 33 Oeste 52 Oeste 0 1002 -- 33
2020-05-10 18:00:00 25.5 31 Oeste 46 Oeste 0 1001.8 -- 31
2020-05-10 17:00:00 24.2 14 Sudoeste 41 Oeste 0 1001.7 -- 32
2020-05-10 16:00:00 25.1 27 Oeste 46 Sudoeste 0 1001.8 -- 30
2020-05-10 15:00:00 24.3 29 Oeste 48 Sudoeste 0 1002.1 -- 34
2020-05-10 14:00:00 23.5 26 Oeste 58 Oeste 0 1002.3 -- 39
2020-05-10 13:00:00 22.5 33 Oeste 46 Oeste 0 1002.7 -- 41
2020-05-10 12:00:00 21.8 20 Oeste 32 Oeste 0 1003 -- 50
2020-05-10 11:00:00 18.6 15 Sudoeste 22 Sudoeste 0 1003 -- 75
2020-05-10 10:00:00 15.5 9 Oeste 15 Oeste 0.3 1003.3 -- 86
2020-05-10 09:00:00 14.8 3 Oeste 28 Noroeste 1.9 1003.5 -- 89
2020-05-10 08:00:00 16.2 3 Oeste 18 Sudoeste 5.9 1003.1 -- 97
2020-05-10 07:00:00 16.6 12 Noroeste 26 Oeste 4.3 1002 -- 92
2020-05-10 06:00:00 16.7 18 Sudoeste 26 Sudoeste 0 1001.6 -- 93
2020-05-10 05:00:00 17.1 6 Sur 15 Oeste 0 1002.3 -- 90
2020-05-10 04:00:00 17 9 Noroeste 17 Sudeste 0 1002.5 -- 92
2020-05-10 03:00:00 17.6 6 Sudeste 22 Norte 0 1003.4 -- 88
2020-05-10 02:00:00 17.5 4 Noroeste 11 Noroeste 0 1004.3 -- 89
2020-05-10 01:00:00 17.7 8 Norte 11 Norte 0 1005.1 -- 89
2020-05-10 00:00:00 17.7 0 Calma 8 Sudeste 0 1005.8 -- 92
2020-05-09 23:00:00 17.6 5 Sur 9 Sur 0 1005.9 -- 94
2020-05-09 22:00:00 18.2 0 Calma 13 Sur 0 1005.8 -- 91
2020-05-09 21:00:00 19 6 Sudeste 13 Sur 0 1005.6 -- 86
2020-05-09 20:00:00 20.1 7 Sur 22 Sur 0 1005.4 -- 77
2020-05-09 19:00:00 20.9 12 Sur 24 Sur 0 1005.5 -- 77
2020-05-09 18:00:00 22.5 14 Sur 24 Sur 0 1005.7 -- 68
2020-05-09 17:00:00 22.1 13 Sur 24 Sur 0 1006.3 -- 68
2020-05-09 16:00:00 23 14 Sur 28 Sur 0 1007.4 -- 66
2020-05-09 15:00:00 22.6 13 Sur 24 Sur 0 1008.3 -- 69
2020-05-09 14:00:00 20.6 9 Sur 18 Sur 0 1008.9 -- 79
2020-05-09 13:00:00 20.6 9 Sudeste 22 Este 0 1009.3 -- 76
2020-05-09 12:00:00 20 14 Este 21 Este 0 1009.8 -- 79
2020-05-09 11:00:00 20 13 Este 22 Este 0 1009.9 -- 80
2020-05-09 10:00:00 19.8 8 Sudeste 15 Sur 0 1009.8 -- 78
2020-05-09 09:00:00 19 8 Sur 18 Sur 0 1009.5 -- 84
2020-05-09 08:00:00 17 4 Sudeste 15 Oeste 0 1009 -- 88
2020-05-09 07:00:00 17.7 0 Calma 9 Sudoeste 0 1008.2 -- 82
2020-05-09 06:00:00 16.6 10 Sudoeste 13 Sudoeste 0 1008.2 -- 91
2020-05-09 05:00:00 18.2 10 Noroeste 18 Noroeste 0 1008.4 -- 85
2020-05-09 04:00:00 18.7 10 Norte 15 Noroeste 0 1009.4 -- 83
2020-05-09 03:00:00 18.5 5 Oeste 18 Sudoeste 0 1011.7 -- 88
2020-05-09 02:00:00 18.6 13 Sur 21 Sur 0 1012.3 -- 88
2020-05-09 01:00:00 18.7 8 Nordeste 15 Nordeste 0 1011.2 -- 87
2020-05-09 00:00:00 18.6 7 Sudeste 13 Sudoeste 0 1011.6 -- 88
2020-05-08 23:00:00 18.4 6 Sudoeste 13 Sudeste 0 1011.8 -- 86
2020-05-08 22:00:00 19 9 Este 24 Este 0 1010.5 -- 84
2020-05-08 21:00:00 19.4 15 Este 33 Este 0 1010 -- 81
2020-05-08 20:00:00 20.6 24 Nordeste 35 Este 0 1009.6 -- 72
2020-05-08 19:00:00 22.1 22 Este 39 Este 0 1009.5 -- 69
2020-05-08 18:00:00 22.6 24 Este 39 Este 0 1009.8 -- 67
2020-05-08 17:00:00 22.5 29 Este 45 Norte 0 1010.2 -- 68
2020-05-08 16:00:00 22.6 26 Este 39 Este 0 1010.8 -- 68
2020-05-08 15:00:00 23.5 26 Este 45 Este 0 1011.1 -- 64
2020-05-08 14:00:00 21.9 30 Nordeste 58 Este 0 1011.1 -- 72
2020-05-08 13:00:00 22.8 17 Este 32 Este 0 1011.7 -- 63
2020-05-08 12:00:00 22.7 17 Este 28 Este 0 1012.1 -- 66
2020-05-08 11:00:00 22.7 9 Sudeste 18 Sudoeste 0 1012.1 -- 58
2020-05-08 10:00:00 20.6 9 Sudoeste 21 Oeste 0 1012.5 -- 68
2020-05-08 09:00:00 18.5 10 Oeste 21 Sudoeste 0 1012.4 -- 74
2020-05-08 08:00:00 16.8 8 Oeste 18 Este 0 1012.2 -- 78
2020-05-08 07:00:00 17 6 Este 22 Oeste 0 1011.1 -- 72
2020-05-08 06:00:00 17.3 18 Oeste 28 Oeste 0 1011.7 -- 74
2020-05-08 05:00:00 15.5 13 Oeste 17 Oeste 0 1011.4 -- 82
2020-05-08 04:00:00 16 6 Noroeste 13 Oeste 0 1011.9 -- 81
2020-05-08 03:00:00 15.6 9 Oeste 13 Oeste 0 1012.6 -- 78
2020-05-08 02:00:00 17 8 Sur 15 Oeste 0 1013 -- 70
2020-05-08 01:00:00 17.7 13 Oeste 15 Oeste 0 1012.6 -- 69
2020-05-08 00:00:00 19.7 9 Noroeste 15 Norte 0 1012.9 -- 61
2020-05-07 23:00:00 21.4 10 Norte 21 Este 0 1013.1 -- 55
2020-05-07 22:00:00 20.9 12 Nordeste 21 Nordeste 0 1013 -- 65
2020-05-07 21:00:00 21.6 10 Nordeste 28 Nordeste 0 1012.8 -- 65
2020-05-07 20:00:00 23.2 16 Nordeste 39 Este 0 1012.4 -- 52
2020-05-07 19:00:00 24.2 26 Nordeste 39 Nordeste 0 1012 -- 44
2020-05-07 18:00:00 25.2 27 Nordeste 45 Este 0 1011.8 -- 42
2020-05-07 17:00:00 25.8 30 Nordeste 50 Este 0 1012.1 -- 39
2020-05-07 16:00:00 25.4 27 Nordeste 46 Este 0 1012.9 -- 39
2020-05-07 15:00:00 25.8 29 Nordeste 45 Nordeste 0 1013.5 -- 36
2020-05-07 14:00:00 26.6 28 Nordeste 45 Este 0 1014.2 -- 34
2020-05-07 13:00:00 26.6 26 Nordeste 42 Este 0 1014.4 -- 33
2020-05-07 12:00:00 25.5 21 Nordeste 37 Este 0 1014.4 -- 32
2020-05-07 11:00:00 25.5 22 Nordeste 32 Nordeste 0 1014.2 -- 36
2020-05-07 10:00:00 24.1 18 Nordeste 28 Nordeste 0 1013.9 -- 49
2020-05-07 09:00:00 22.6 12 Nordeste 18 Norte 0 1013.5 -- 54
2020-05-07 08:00:00 18.7 9 Nordeste 13 Nordeste 0 1013.5 -- 66
2020-05-07 07:00:00 17.1 5 Noroeste 11 Nordeste 0 1013.5 -- 76
2020-05-07 06:00:00 15.8 5 Norte 11 Norte 0 1013.3 -- 84
2020-05-07 05:00:00 16.1 5 Norte 8 Norte 0 1013.1 -- 85
2020-05-07 04:00:00 16.3 -- -- -- -- 0 1013.2 -- 87
2020-05-07 03:00:00 16.9 3 Noroeste -- -- 0 1013.5 -- 87
2020-05-07 02:00:00 17 4 Noroeste -- -- 0 1014 -- 89
2020-05-07 01:00:00 17.4 6 Norte 9 Norte 0 1014.1 -- 92
2020-05-07 00:00:00 18.7 5 Norte 17 Este 0 1014 -- 92
2020-05-06 23:00:00 18.5 11 Este 15 Este 0 1014.1 -- 88
2020-05-06 22:00:00 19.2 12 Este 17 Este 0 1013.2 -- 83
2020-05-06 21:00:00 20 10 Nordeste 18 Este 0 1012.7 -- 77
2020-05-06 20:00:00 21.8 13 Este 21 Este 0 1012.1 -- 64
2020-05-06 19:00:00 22.5 14 Nordeste 24 Este 0 1011.9 -- 64
2020-05-06 18:00:00 22.8 18 Este 32 Este 0 1012 -- 64
2020-05-06 17:00:00 23.7 18 Este 28 Este 0 1012.1 -- 58
2020-05-06 16:00:00 24.7 15 Este 26 Este 0 1012.5 -- 54
2020-05-06 15:00:00 23.9 17 Este 30 Este 0 1013 -- 60
2020-05-06 14:00:00 23.1 15 Este 30 Este 0 1013.4 -- 67
2020-05-06 13:00:00 22.5 16 Este 26 Norte 0 1013.5 -- 72
2020-05-06 12:00:00 22.1 17 Este 26 Este 0 1013.5 -- 78
2020-05-06 11:00:00 23 13 Este 22 Sudeste 0 1013.1 -- 63
2020-05-06 10:00:00 21.1 4 Sur 15 Oeste 0 1012.5 -- 73
2020-05-06 09:00:00 19.2 7 Sudoeste 13 Sur 0 1011.9 -- 77
2020-05-06 08:00:00 18.6 3 Sur 9 Norte 0 1011.1 -- 84
2020-05-06 07:00:00 17 4 Norte 15 Norte 0 1010.9 -- 95
2020-05-06 06:00:00 17.8 7 Norte 13 Nordeste 0 1011.3 -- 95
2020-05-06 05:00:00 18 8 Nordeste 13 Nordeste 0 1011.6 -- 93
2020-05-06 04:00:00 17.5 6 Nordeste 11 Nordeste 0 1011.2 -- 85
2020-05-06 03:00:00 17.2 3 Este 9 Nordeste 0 1011.1 -- 91
2020-05-06 02:00:00 18.2 8 Noroeste 9 Noroeste 0 1011.3 -- 92
2020-05-06 01:00:00 18 8 Oeste 11 Sudoeste 0 1011.6 -- 90
2020-05-06 00:00:00 18.7 8 Sudoeste -- -- 0 1011.3 -- 78
2020-05-05 23:00:00 19.4 10 Oeste 11 Oeste 0 1010.9 -- 76
2020-05-05 22:00:00 20.3 5 Oeste 9 Oeste 0 1010.4 -- 68
2020-05-05 21:00:00 21.8 2 Sudeste 8 Sudeste 0 1010 -- 63
2020-05-05 20:00:00 23.2 5 Este 13 Este 0 1009.3 -- 58
2020-05-05 19:00:00 23.8 10 Este 17 Este 0 1009.4 -- 58
2020-05-05 18:00:00 24.8 10 Nordeste 18 Este 0 1009.4 -- 56
2020-05-05 17:00:00 24.9 12 Este 21 Este 0 1009.6 -- 54
2020-05-05 16:00:00 25.8 13 Este 26 Este 0 1010 -- 55
2020-05-05 15:00:00 26.3 15 Este 24 Este 0 1010.3 -- 56
2020-05-05 14:00:00 25.2 11 Este 22 Este 0 1010.7 -- 61
2020-05-05 13:00:00 24.7 12 Este 18 Sudeste 0 1010.8 -- 63
2020-05-05 12:00:00 22.8 10 Este 18 Este 0 1011.2 -- 68
2020-05-05 11:00:00 22.8 12 Este 21 Este 0 1011.2 -- 66
2020-05-05 10:00:00 22.1 8 Este 13 Sudeste 0 1010.8 -- 58
2020-05-05 09:00:00 20.2 2 Sudeste 9 Sudeste 0 1010.4 -- 56
2020-05-05 08:00:00 15.8 0 Calma 13 Oeste 0 1009.8 -- 73
2020-05-05 07:00:00 14.8 9 Oeste 15 Noroeste 0 1009.6 -- 78
2020-05-05 06:00:00 15.6 8 Sur 13 Sur 0 1009.5 -- 72
2020-05-05 05:00:00 15.9 9 Sudoeste 15 Sudoeste 0 1009.8 -- 69
2020-05-05 04:00:00 16.4 3 Sudoeste 11 Sudeste 0 1009.2 -- 68
2020-05-05 03:00:00 17.7 5 Nordeste 9 Nordeste 0 1009.5 -- 61
2020-05-05 02:00:00 18.1 0 Calma 8 Este 0 1010.8 -- 62
2020-05-05 01:00:00 18.9 4 Norte 8 Noroeste 0 1011 -- 62
2020-05-05 00:00:00 18.2 5 Norte 11 Este 0 1011.2 -- 71
2020-05-04 23:00:00 19.2 4 Este 11 Norte 0 1010.8 -- 73
2020-05-04 22:00:00 19.6 5 Este 11 Este 0 1010.1 -- 78
2020-05-04 21:00:00 20.6 8 Este 13 Este 0 1009.8 -- 74
2020-05-04 20:00:00 24.1 8 Este 13 Este 0 1009.7 -- 60
2020-05-04 19:00:00 24.4 10 Este 17 Este 0 1010.2 -- 59
2020-05-04 18:00:00 25.8 8 Nordeste 22 Este 0 1010.2 -- 51
2020-05-04 17:00:00 25 16 Nordeste 24 Este 0 1010.5 -- 53
2020-05-04 16:00:00 25.7 17 Este 24 Este 0 1011.4 -- 55
2020-05-04 15:00:00 25.2 17 Este 28 Este 0 1011.5 -- 55
2020-05-04 14:00:00 24.9 17 Este 24 Este 0 1011.9 -- 55
2020-05-04 13:00:00 24.8 13 Este 18 Este 0 1012.3 -- 56
2020-05-04 12:00:00 22.3 13 Este 21 Este 0 1012.8 -- 72
2020-05-04 11:00:00 23.8 13 Nordeste 18 Norte 0 1012.8 -- 51
2020-05-04 10:00:00 23.6 6 Este 11 Norte 0 1012.6 -- 50
2020-05-04 09:00:00 20.9 0 Calma 8 Oeste 0 1012.5 -- 62
2020-05-04 08:00:00 15.9 3 Noroeste 8 Oeste 0 1012.3 -- 79
2020-05-04 07:00:00 14.8 4 Oeste 11 Norte 0 1012.1 -- 83
2020-05-04 06:00:00 15.5 10 Nordeste 13 Norte 0 1011.9 -- 85
2020-05-04 05:00:00 15.8 5 Norte 13 Nordeste 0 1012 -- 85
2020-05-04 04:00:00 16.4 8 Norte 13 Norte 0 1011.9 -- 86
2020-05-04 03:00:00 16.1 8 Norte 11 Norte 0 1012.4 -- 90
2020-05-04 02:00:00 16 5 Norte 9 Norte 0 1013 -- 93
2020-05-04 01:00:00 17.3 4 Nordeste 8 Nordeste 0 1013.6 -- 93
2020-05-04 00:00:00 16.8 7 Este -- -- 0 1013.4 -- 87
2020-05-03 23:00:00 17.7 4 Nordeste 8 Nordeste 0 1013.4 -- 87
2020-05-03 22:00:00 18.5 4 Nordeste 15 Este 0 1012.9 -- 84
2020-05-03 21:00:00 19.3 10 Este 17 Este 0 1012.5 -- 81
2020-05-03 20:00:00 21.8 11 Nordeste 18 Este 0 1012.3 -- 69
2020-05-03 19:00:00 23.1 13 Este 22 Este 0 1012.7 -- 65
2020-05-03 18:00:00 24.2 14 Este 22 Este 0 1013 -- 59
2020-05-03 17:00:00 25.7 15 Este 24 Este 0 1013.2 -- 53
2020-05-03 16:00:00 26.5 19 Este 32 Este 0 1013.8 -- 46
2020-05-03 15:00:00 26.9 18 Este 30 Este 0 1014.3 -- 46
2020-05-03 14:00:00 26.4 18 Nordeste 32 Este 0 1014.8 -- 49
2020-05-03 13:00:00 26.4 19 Nordeste 30 Este 0 1015.3 -- 49
2020-05-03 12:00:00 25.9 15 Este 24 Este 0 1015.3 -- 50
2020-05-03 11:00:00 24.6 9 Este 21 Nordeste 0 1015.3 -- 54
2020-05-03 10:00:00 23.2 13 Nordeste 22 Este 0 1015.1 -- 58
2020-05-03 09:00:00 20.2 3 Este 8 Norte 0 1014.7 -- 68
2020-05-03 08:00:00 19 0 Calma 8 Oeste 0 1013.9 -- 68
2020-05-03 07:00:00 17 6 Oeste 11 Oeste 0 1013.3 -- 76
2020-05-03 06:00:00 16.4 7 Oeste 9 Oeste 0 1013.3 -- 82
2020-05-03 05:00:00 18.4 5 Noroeste 9 Oeste 0 1013.4 -- 74
2020-05-03 04:00:00 18.3 8 Oeste 13 Oeste 0 1013.5 -- 79
2020-05-03 03:00:00 18.6 9 Oeste 13 Oeste 0 1014 -- 79
2020-05-03 02:00:00 18.3 9 Oeste -- -- 0 1014.7 -- 80
2020-05-03 01:00:00 18 0 Calma 8 Sudeste 0 1014.9 -- 82
2020-05-03 00:00:00 19 8 Este 11 Norte 0 1014.9 -- 76
2020-05-02 23:00:00 19.7 8 Nordeste 15 Nordeste 0 1015 -- 72
2020-05-02 22:00:00 21 9 Norte 13 Nordeste 0 1014.6 -- 68
2020-05-02 21:00:00 22 2 Sudeste 13 Sur 0 1014.1 -- 65
2020-05-02 20:00:00 25.4 8 Sur 30 Sur 0 1013.6 -- 52
2020-05-02 19:00:00 26.9 18 Sur 37 Sur 0 1013.3 -- 48
2020-05-02 18:00:00 27.8 19 Sur 41 Sur 0 1013.2 -- 46
2020-05-02 17:00:00 27.8 28 Sur 42 Sur 0 1013.4 -- 46
2020-05-02 16:00:00 29.7 24 Sur 37 Sur 0 1014.2 -- 42
2020-05-02 15:00:00 29.2 21 Sur 32 Sur 0 1014.8 -- 44
2020-05-02 14:00:00 30.7 14 Oeste 35 Oeste 0 1015 -- 33
2020-05-02 13:00:00 29.3 23 Oeste 33 Oeste 0 1015.6 -- 36
2020-05-02 12:00:00 27.7 28 Oeste 37 Oeste 0 1016 -- 41
2020-05-02 11:00:00 26.1 32 Oeste 50 Oeste 0 1016 -- 48
2020-05-02 10:00:00 24 29 Noroeste 48 Oeste 0 1016 -- 53
2020-05-02 09:00:00 22.8 28 Oeste 52 Noroeste 0 1015.7 -- 57
2020-05-02 08:00:00 21.2 28 Oeste 42 Noroeste 0 1015.2 -- 60
2020-05-02 07:00:00 21 23 Oeste 32 Oeste 0 1014.7 -- 60
2020-05-02 06:00:00 21.2 8 Oeste 35 Oeste 0 1014.7 -- 58
2020-05-02 05:00:00 21.6 25 Oeste 41 Oeste 0 1015 -- 56
2020-05-02 04:00:00 21.5 19 Oeste 32 Oeste 0 1015.1 -- 56
2020-05-02 03:00:00 21.8 9 Oeste 15 Oeste 0 1015.6 -- 54
2020-05-02 02:00:00 22.2 11 Noroeste 21 Oeste 0 1015.8 -- 54
2020-05-02 01:00:00 23.5 16 Oeste 45 Noroeste 0 1015.4 -- 49
2020-05-02 00:00:00 24.6 30 Noroeste 45 Noroeste 0 1014.7 -- 45
2020-05-01 23:00:00 25.2 28 Noroeste 39 Noroeste 0 1014.8 -- 44
2020-05-01 22:00:00 24.7 23 Oeste 32 Oeste 0 1014.4 -- 47
2020-05-01 21:00:00 24.6 16 Oeste 21 Oeste 0 1013.5 -- 53
2020-05-01 20:00:00 26.1 7 Sudoeste 30 Sur 0 1012.9 -- 51
2020-05-01 19:00:00 26.5 17 Sur 30 Sur 0 1012.8 -- 51
2020-05-01 18:00:00 25 19 Sur 37 Sur 0 1012.6 -- 56
2020-05-01 17:00:00 25.4 21 Sur 33 Sur 0 1012.6 -- 53
2020-05-01 16:00:00 26.9 21 Sur 37 Sur 0 1013.1 -- 47
2020-05-01 15:00:00 29 19 Oeste 46 Oeste 0 1013.7 -- 34
2020-05-01 14:00:00 27.7 21 Oeste 33 Oeste 0 1014.3 -- 36
2020-05-01 13:00:00 26.5 22 Oeste 42 Oeste 0 1015 -- 39
2020-05-01 12:00:00 24.8 30 Oeste 48 Oeste 0 1015.3 -- 43
2020-05-01 11:00:00 23.2 22 Oeste 45 Oeste 0 1015.5 -- 46
2020-05-01 10:00:00 21.3 27 Oeste 55 Noroeste 0 1015.3 -- 49
2020-05-01 09:00:00 19.7 18 Oeste 35 Oeste 0 1015.8 -- 53
2020-05-01 08:00:00 18.9 22 Oeste 41 Oeste 0 1015.3 -- 56
2020-05-01 07:00:00 17.7 27 Oeste 48 Oeste 0 1014.7 -- 59
2020-05-01 06:00:00 17.7 17 Oeste 33 Oeste 0 1014.8 -- 57
2020-05-01 05:00:00 18.5 22 Oeste 32 Oeste 0 1014.5 -- 54
2020-05-01 04:00:00 18.4 23 Oeste 35 Oeste 0 1014.8 -- 55
2020-05-01 03:00:00 19.7 22 Oeste 41 Oeste 0 1014.9 -- 50
2020-05-01 02:00:00 20 28 Oeste 37 Noroeste 0 1015 -- 49
2020-05-01 01:00:00 20.2 21 Oeste 33 Oeste 0 1014.8 -- 49
2020-05-01 00:00:00 19.4 10 Sudoeste 21 Sudoeste 0 1014.7 -- 54
2020-04-30 23:00:00 20.7 8 Sudoeste 15 Sur 0 1014.3 -- 48
2020-04-30 22:00:00 22.2 9 Noroeste 24 Noroeste 0 1013.4 -- 44
2020-04-30 21:00:00 23.8 14 Noroeste 22 Oeste 0 1012.4 -- 41
2020-04-30 20:00:00 25.9 10 Oeste 30 Sur 0 1011.6 -- 37
2020-04-30 19:00:00 24.4 19 Sur 37 Sur 0 1011.4 -- 52
2020-04-30 18:00:00 25.3 22 Sur 37 Sur 0 1011.3 -- 48
2020-04-30 17:00:00 24 22 Sur 35 Sur 0 1011.8 -- 45
2020-04-30 16:00:00 27.2 18 Sur 45 Oeste 0 1012.1 -- 30
2020-04-30 15:00:00 26.6 20 Oeste 39 Oeste 0 1012.6 -- 33
2020-04-30 14:00:00 26.1 19 Oeste 35 Oeste 0 1012.7 -- 35
2020-04-30 13:00:00 25.5 22 Oeste 45 Oeste 0 1013.2 -- 37
2020-04-30 12:00:00 24.6 29 Oeste 42 Oeste 0 1013.7 -- 36
2020-04-30 11:00:00 23.1 24 Oeste 39 Oeste 0 1013.8 -- 41
2020-04-30 10:00:00 20.7 24 Oeste 41 Oeste 0 1013.5 -- 49
2020-04-30 09:00:00 19.2 25 Oeste 42 Noroeste 0 1012.8 -- 52
2020-04-30 08:00:00 18.5 20 Oeste 30 Oeste 0 1012.9 -- 56
2020-04-30 07:00:00 15.4 14 Oeste 24 Oeste 0 1012.3 -- 66
2020-04-30 06:00:00 12.9 9 Oeste 15 Sudoeste 0 1012.2 -- 84
2020-04-30 05:00:00 15.3 12 Oeste 18 Noroeste 0 1012.5 -- 67
2020-04-30 04:00:00 14.1 8 Oeste -- -- 0 1012.9 -- 76
2020-04-30 03:00:00 13.8 13 Oeste 15 Sudoeste 0 1013.6 -- 81
2020-04-30 02:00:00 14.1 6 Oeste 11 Oeste 0 1014.2 -- 83
2020-04-30 01:00:00 14.8 9 Sudoeste 11 Sudoeste 0 1014.2 -- 81
2020-04-30 00:00:00 16.1 0 Calma 11 Sudoeste 0 1014.2 -- 76
2020-04-29 23:00:00 16.6 8 Sudoeste 17 Sudoeste 0 1014.2 -- 72
2020-04-29 22:00:00 18.2 12 Sudoeste 21 Sudoeste 0 1013.6 -- 64
2020-04-29 21:00:00 19.4 13 Sudoeste 30 Sur 0 1013.1 -- 59
2020-04-29 20:00:00 22 19 Sur 45 Sur 0 1012.6 -- 48
2020-04-29 19:00:00 22.2 26 Sur 46 Sur 0 1012.2 -- 52
2020-04-29 18:00:00 22.7 25 Sur 48 Sur 0 1012.1 -- 51
2020-04-29 17:00:00 23.3 25 Sur 45 Sur 0 1012.5 -- 48
2020-04-29 16:00:00 25.4 18 Sudoeste 33 Oeste 0 1013.2 -- 33
2020-04-29 15:00:00 24.4 16 Oeste 33 Oeste 0 1013.7 -- 35
2020-04-29 14:00:00 23.4 21 Oeste 33 Oeste 0 1014.2 -- 35
2020-04-29 13:00:00 22.3 20 Oeste 45 Oeste 0 1014.9 -- 37
2020-04-29 12:00:00 21.4 25 Oeste 41 Noroeste 0 1015.3 -- 41
2020-04-29 11:00:00 19.7 23 Oeste 41 Oeste 0 1015.6 -- 47
2020-04-29 10:00:00 18.4 28 Oeste 39 Oeste 0 1015.4 -- 52
2020-04-29 09:00:00 16.4 13 Oeste 22 Oeste 0 1015.1 -- 55
2020-04-29 08:00:00 14.8 9 Noroeste 17 Noroeste 0 1014.6 -- 60
2020-04-29 07:00:00 13.7 16 Oeste 30 Oeste 0 1014 -- 63
2020-04-29 06:00:00 14.1 15 Oeste 22 Oeste 0 1013.7 -- 61
2020-04-29 05:00:00 12.1 14 Oeste 17 Noroeste 0 1013.6 -- 70
2020-04-29 04:00:00 14.2 10 Noroeste 13 Noroeste 0 1013.7 -- 59
2020-04-29 03:00:00 12.9 2 Norte 13 Norte 0 1013.8 -- 71
2020-04-29 02:00:00 13.8 5 Oeste 9 Sur 0 1014 -- 72
2020-04-29 01:00:00 13 6 Oeste 13 Oeste 0 1013.8 -- 93
2020-04-29 00:00:00 13.6 5 Oeste 8 Oeste 0 1013.4 -- 92